»·PEaware :: ACA211 KLAX-CYVR

ACA211 :: KLAX-CYVR

FLIGHT INFORMATION

Flight Status: Arrived
Operator:
Air Canada
More flights by this operator :: More flights under this callsign
Pilot: Brandon B. (9237)
Aircraft: BOEING 777-300
(B773)
More flights by this aircraft type
Origin: KLAX Los Angeles Intl
United States
Destination: CYVR Vancouver Intl
Canada
More flights between these airports :: More routes between these airports
Route: + / FRA170022 PAE GRIZZ5
File this flight plan on PilotEdge
Remarks:
Altitude:
(Current/Filed)
38,000ft
Speed:
(Current/Filed)
453kts
Departed: 29-May-17 03:31 PM
Arrived: 29-May-17 05:56 PM
Distance/Time
Traveled:
939nm/2:25
Distance/Time
To Go:
Arrived

Flight Plot

Page will automatically refresh every two minutes.

Flight plan parsing failed; only flown route is shown


Map Options




Map Legend


Flown Route
Filed Route
Departure Airport
Arrival Airport
Navaid (VOR, NDB)
Fix

Horizontal Profiles

Position Reports

Time Latitude Longitude Heading Altitude Ground
Speed
29-May-17 14:25 33.944598 -118.411636 82 139ft 0kts
29-May-17 14:26 33.944598 -118.411636 82 139ft 0kts
29-May-17 14:27 33.944598 -118.411636 82 139ft 0kts
29-May-17 14:28 33.944598 -118.411636 82 140ft 0kts
29-May-17 14:29 33.944598 -118.411636 82 140ft 0kts
29-May-17 14:30 33.944598 -118.411636 82 140ft 0kts
29-May-17 14:31 33.944598 -118.411636 82 140ft 0kts
29-May-17 14:32 33.944598 -118.411636 82 140ft 0kts
29-May-17 14:33 33.944598 -118.411636 82 140ft 0kts
29-May-17 14:34 33.944598 -118.411636 82 140ft 0kts
29-May-17 14:35 33.944598 -118.411636 82 140ft 0kts
29-May-17 14:36 33.944598 -118.411636 82 140ft 0kts
29-May-17 14:37 33.944598 -118.411636 82 140ft 0kts
29-May-17 14:38 33.944598 -118.411636 82 140ft 0kts
29-May-17 14:39 33.944598 -118.411636 82 140ft 0kts
29-May-17 14:40 33.944598 -118.411636 82 140ft 0kts
29-May-17 14:41 33.944598 -118.411636 82 140ft 0kts
29-May-17 14:42 33.944598 -118.411636 82 140ft 0kts
29-May-17 14:43 33.944598 -118.411636 82 140ft 0kts
29-May-17 14:44 33.944598 -118.411636 82 140ft 0kts
29-May-17 14:45 33.944598 -118.411636 82 140ft 0kts
29-May-17 14:46 33.944598 -118.411636 82 140ft 0kts
29-May-17 14:47 33.944598 -118.411636 82 140ft 0kts
29-May-17 14:48 33.944598 -118.411636 82 140ft 0kts
29-May-17 14:49 33.944598 -118.411636 82 140ft 0kts
29-May-17 14:50 33.944598 -118.411636 82 140ft 0kts
29-May-17 14:51 33.944598 -118.411636 82 140ft 0kts
29-May-17 14:52 33.944598 -118.411636 82 140ft 0kts
29-May-17 14:53 33.944598 -118.411636 82 140ft 0kts
29-May-17 14:54 33.944598 -118.411636 82 140ft 0kts
29-May-17 14:55 33.944598 -118.411636 82 140ft 0kts
29-May-17 14:56 33.944598 -118.411636 82 140ft 0kts
29-May-17 14:57 33.944598 -118.411636 82 140ft 0kts
29-May-17 14:58 33.944598 -118.411636 82 140ft 0kts
29-May-17 14:59 33.944598 -118.411636 82 140ft 0kts
29-May-17 15:00 33.944598 -118.411636 82 140ft 0kts
29-May-17 15:01 33.944598 -118.411636 82 140ft 0kts
29-May-17 15:02 33.944598 -118.411636 82 140ft 0kts
29-May-17 15:03 33.944598 -118.411636 82 140ft 0kts
29-May-17 15:04 33.944598 -118.411636 82 140ft 0kts
29-May-17 15:05 33.944598 -118.411636 82 140ft 0kts
29-May-17 15:06 33.944598 -118.411636 82 140ft 0kts
29-May-17 15:07 33.944598 -118.411636 82 140ft 0kts
29-May-17 15:08 33.944598 -118.411636 82 140ft 0kts
29-May-17 15:09 33.944598 -118.411636 82 140ft 0kts
29-May-17 15:10 33.944598 -118.411636 82 140ft 0kts
29-May-17 15:11 33.944598 -118.411636 82 140ft 0kts
29-May-17 15:12 33.944598 -118.411636 82 140ft 0kts
29-May-17 15:13 33.944598 -118.411636 82 140ft 0kts
29-May-17 15:14 33.944598 -118.411636 82 140ft 0kts
29-May-17 15:15 33.944598 -118.411636 82 140ft 0kts
29-May-17 15:16 33.944598 -118.411636 82 140ft 0kts
29-May-17 15:17 33.944598 -118.411636 82 140ft 0kts
29-May-17 15:18 33.944598 -118.411636 82 140ft 0kts
29-May-17 15:19 33.944550 -118.412105 82 140ft 2kts
29-May-17 15:20 33.944499 -118.412584 50 140ft 2kts
29-May-17 15:21 33.943994 -118.412589 352 140ft 2kts
29-May-17 15:22 33.943941 -118.412581 352 140ft 0kts
29-May-17 15:23 33.943941 -118.412581 352 140ft 0kts
29-May-17 15:24 33.943942 -118.412581 352 140ft 0kts
29-May-17 15:25 33.943942 -118.412581 352 140ft 0kts
29-May-17 15:26 33.943942 -118.412581 352 140ft 0kts
29-May-17 15:27 33.943943 -118.412581 352 140ft 0kts
29-May-17 15:28 33.947831 -118.412948 48 140ft 8kts
29-May-17 15:29 33.948418 -118.407995 82 140ft 16kts
29-May-17 15:30 33.948808 -118.404286 81 140ft 15kts
29-May-17 15:31 33.949143 -118.401976 45 140ft 2kts
29-May-17 15:32 33.950078 -118.402701 263 140ft 4kts
29-May-17 15:33 33.949680 -118.406725 260 140ft 71kts
29-May-17 15:34 33.945008 -118.461596 261 2555ft 191kts
29-May-17 15:35 33.940227 -118.536611 265 4941ft 258kts
29-May-17 15:36 33.941606 -118.627175 301 6087ft 278kts
29-May-17 15:37 34.004877 -118.675514 355 6100ft 275kts
29-May-17 15:38 34.081206 -118.671367 8 6090ft 274kts
29-May-17 15:39 34.156183 -118.653333 12 6091ft 274kts
29-May-17 15:40 34.231413 -118.636388 5 6479ft 283kts
29-May-17 15:41 34.311415 -118.647407 350 10231ft 296kts
29-May-17 15:42 34.400809 -118.668233 349 12841ft 359kts
29-May-17 15:43 34.503015 -118.689127 350 14933ft 382kts
29-May-17 15:44 34.596986 -118.707360 349 18437ft 393kts
29-May-17 15:45 34.706525 -118.732905 339 21813ft 408kts
29-May-17 15:46 34.810971 -118.793893 329 24837ft 423kts
29-May-17 15:47 34.914870 -118.865646 328 27535ft 438kts
29-May-17 15:48 35.022054 -118.939717 328 29996ft 449kts
29-May-17 15:49 35.132402 -119.015695 328 31893ft 460kts
29-May-17 15:50 35.243549 -119.092551 328 34075ft 454kts
29-May-17 15:51 35.352843 -119.168775 328 35813ft 451kts
29-May-17 15:52 35.464250 -119.238410 341 37233ft 454kts
29-May-17 15:53 35.590992 -119.266910 348 37773ft 472kts
29-May-17 15:54 35.708004 -119.291041 347 38089ft 469kts
29-May-17 15:55 35.836031 -119.318351 347 38091ft 470kts
29-May-17 15:56 35.964588 -119.345944 347 38094ft 469kts
29-May-17 15:57 36.093689 -119.373818 347 38099ft 470kts
29-May-17 15:58 36.222463 -119.401721 347 38093ft 470kts
29-May-17 15:59 36.351214 -119.429715 347 38090ft 470kts
29-May-17 16:00 36.479977 -119.457805 347 38092ft 470kts
29-May-17 16:01 36.609162 -119.486084 347 38095ft 470kts
29-May-17 16:02 36.737925 -119.514366 347 38093ft 470kts
29-May-17 16:03 36.866695 -119.542665 347 38096ft 470kts
29-May-17 16:04 36.983943 -119.567267 348 38102ft 470kts
29-May-17 16:05 37.112294 -119.594052 348 38120ft 470kts
29-May-17 16:06 37.241149 -119.621071 348 38140ft 470kts
29-May-17 16:07 37.370051 -119.648200 348 38165ft 470kts
29-May-17 16:08 37.499198 -119.675476 348 38197ft 468kts
29-May-17 16:09 37.627628 -119.702697 348 38206ft 469kts
29-May-17 16:10 37.756177 -119.730006 348 38220ft 469kts
29-May-17 16:11 37.884687 -119.757357 348 38214ft 469kts
29-May-17 16:12 38.013601 -119.784955 348 38209ft 469kts
29-May-17 16:13 38.142025 -119.812557 348 38248ft 468kts
29-May-17 16:14 38.259623 -119.837921 348 38257ft 469kts
29-May-17 16:15 38.388597 -119.865835 348 38274ft 469kts
29-May-17 16:16 38.517131 -119.893754 348 38294ft 469kts
29-May-17 16:17 38.645728 -119.921789 348 38307ft 469kts
29-May-17 16:18 38.774407 -119.949943 348 38322ft 470kts
29-May-17 16:19 38.903599 -119.978314 349 38338ft 470kts
29-May-17 16:20 39.032406 -120.006704 349 38333ft 470kts
29-May-17 16:21 39.161385 -120.035238 349 38332ft 471kts
29-May-17 16:22 39.290864 -120.063989 349 38351ft 471kts
29-May-17 16:23 39.417970 -120.092318 349 38349ft 471kts
29-May-17 16:24 39.537120 -120.118970 350 38325ft 472kts
29-May-17 16:25 39.665739 -120.147844 350 38324ft 472kts
29-May-17 16:26 39.795482 -120.177081 350 38307ft 472kts
29-May-17 16:27 39.924825 -120.206340 350 38293ft 472kts
29-May-17 16:28 40.054206 -120.235720 350 38262ft 472kts
29-May-17 16:29 40.183576 -120.265211 350 38262ft 472kts
29-May-17 16:30 40.313368 -120.294913 350 38261ft 472kts
29-May-17 16:31 40.442925 -120.324677 350 38260ft 473kts
29-May-17 16:32 40.572482 -120.354558 350 38261ft 473kts
29-May-17 16:33 40.698136 -120.383651 350 38261ft 473kts
29-May-17 16:34 40.817207 -120.411323 350 38263ft 474kts
29-May-17 16:35 40.946505 -120.441486 350 38265ft 474kts
29-May-17 16:36 41.076243 -120.471873 350 38267ft 474kts
29-May-17 16:37 41.206432 -120.502487 350 38269ft 474kts
29-May-17 16:38 41.336221 -120.533132 350 38269ft 474kts
29-May-17 16:39 41.466055 -120.563911 350 38270ft 474kts
29-May-17 16:40 41.596332 -120.594922 350 38269ft 474kts
29-May-17 16:41 41.726200 -120.625961 350 38267ft 475kts
29-May-17 16:42 41.856084 -120.657133 350 38263ft 475kts
29-May-17 16:43 41.979704 -120.686921 350 38259ft 475kts
29-May-17 16:44 42.105659 -120.717392 350 38255ft 476kts
29-May-17 16:45 42.235758 -120.748996 350 38254ft 476kts
29-May-17 16:46 42.366029 -120.780774 350 38252ft 476kts
29-May-17 16:47 42.496353 -120.812700 350 38250ft 477kts
29-May-17 16:48 42.627193 -120.844888 349 38249ft 477kts
29-May-17 16:49 42.757686 -120.877129 349 38248ft 477kts
29-May-17 16:50 42.888183 -120.909508 349 38247ft 477kts
29-May-17 16:51 43.019312 -120.942185 349 38244ft 478kts
29-May-17 16:52 43.149960 -120.974884 349 38244ft 478kts
29-May-17 16:53 43.271961 -121.005547 349 38244ft 478kts
29-May-17 16:54 43.399262 -121.037676 349 38244ft 478kts
29-May-17 16:55 43.530327 -121.070898 349 38244ft 478kts
29-May-17 16:56 43.660952 -121.104155 349 38244ft 478kts
29-May-17 16:57 43.791574 -121.137559 349 38244ft 478kts
29-May-17 16:58 43.922191 -121.171111 349 38244ft 478kts
29-May-17 16:59 44.053234 -121.204923 349 38244ft 478kts
29-May-17 17:00 44.183845 -121.238775 349 38244ft 478kts
29-May-17 17:01 44.314403 -121.272767 349 38244ft 478kts
29-May-17 17:02 44.445391 -121.307025 349 38244ft 478kts
29-May-17 17:03 44.564952 -121.338431 349 38244ft 478kts
29-May-17 17:04 44.692825 -121.372167 349 38244ft 478kts
29-May-17 17:05 44.823402 -121.406773 349 38244ft 478kts
29-May-17 17:06 44.954407 -121.441653 349 38244ft 478kts
29-May-17 17:07 45.084964 -121.476575 349 38244ft 478kts
29-May-17 17:08 45.215518 -121.511660 349 38244ft 478kts
29-May-17 17:09 45.346069 -121.546908 349 38244ft 478kts
29-May-17 17:10 45.477044 -121.582437 349 38244ft 478kts
29-May-17 17:11 45.607578 -121.618014 349 38244ft 478kts
29-May-17 17:12 45.738113 -121.653760 349 38244ft 478kts
29-May-17 17:13 45.858032 -121.686750 349 38244ft 478kts
29-May-17 17:14 45.988545 -121.722820 349 38244ft 478kts
29-May-17 17:15 46.118977 -121.759040 349 38244ft 478kts
29-May-17 17:16 46.249912 -121.795576 349 38244ft 478kts
29-May-17 17:17 46.380403 -121.832166 349 38244ft 478kts
29-May-17 17:18 46.510890 -121.868933 349 38244ft 478kts
29-May-17 17:19 46.641802 -121.906001 348 38244ft 478kts
29-May-17 17:20 46.772269 -121.943125 348 38244ft 478kts
29-May-17 17:21 46.902722 -121.980430 348 38244ft 478kts
29-May-17 17:22 47.033177 -122.017920 348 38244ft 478kts
29-May-17 17:23 47.153371 -122.052628 348 38244ft 478kts
29-May-17 17:24 47.283725 -122.090451 348 38215ft 476kts
29-May-17 17:25 47.411769 -122.127789 348 36016ft 468kts
29-May-17 17:26 47.539462 -122.165210 348 33137ft 468kts
29-May-17 17:27 47.667269 -122.202692 348 30187ft 462kts
29-May-17 17:28 47.790631 -122.239286 348 27791ft 442kts
29-May-17 17:29 47.914986 -122.276340 347 24598ft 455kts
29-May-17 17:30 48.038244 -122.312042 348 23631ft 444kts
29-May-17 17:31 48.157925 -122.346830 347 21105ft 433kts
29-May-17 17:32 48.274670 -122.380594 348 18735ft 420kts
29-May-17 17:33 48.376995 -122.410541 347 16644ft 408kts
29-May-17 17:34 48.487860 -122.443196 347 15550ft 402kts
29-May-17 17:35 48.593890 -122.474474 347 14382ft 364kts
29-May-17 17:36 48.686657 -122.502489 342 13889ft 320kts
29-May-17 17:37 48.753115 -122.580228 310 12923ft 296kts
29-May-17 17:38 48.806229 -122.673551 308 11712ft 290kts
29-May-17 17:39 48.859378 -122.765231 309 10458ft 287kts
29-May-17 17:40 48.911438 -122.856352 308 10197ft 287kts
29-May-17 17:41 48.963469 -122.948084 309 10199ft 286kts
29-May-17 17:42 49.015405 -123.039796 309 10195ft 286kts
29-May-17 17:43 49.059475 -123.117520 308 9922ft 286kts
29-May-17 17:44 49.091395 -123.225528 284 8707ft 279kts
29-May-17 17:45 49.110731 -123.337399 283 7948ft 258kts
29-May-17 17:46 49.128239 -123.439614 283 7143ft 244kts
29-May-17 17:47 49.145392 -123.539573 283 6133ft 240kts
29-May-17 17:48 49.160187 -123.638055 280 5178ft 235kts
29-May-17 17:49 49.189254 -123.717654 347 4485ft 222kts
29-May-17 17:50 49.225758 -123.658060 81 4040ft 217kts
29-May-17 17:51 49.229023 -123.567917 88 3251ft 198kts
29-May-17 17:52 49.222236 -123.488054 99 2758ft 186kts
29-May-17 17:53 49.214493 -123.420615 99 2322ft 179kts
29-May-17 17:54 49.206004 -123.346573 99 1858ft 172kts
29-May-17 17:55 49.197747 -123.274540 98 923ft 170kts
29-May-17 17:56 49.189660 -123.204036 99 37ft 166kts
29-May-17 17:57 49.185677 -123.169297 99 28ft 45kts
29-May-17 17:58 49.185934 -123.161782 9 28ft 14kts
29-May-17 17:59 49.187446 -123.165806 278 28ft 12kts

Navigation Log

Ident Type
Flight plan parsing failed, navigation log unavailable